createdAt,value
2023-04-28T00:03:03.821Z,101048.38
2023-04-28T00:06:21.704Z,101056.16
2023-04-28T00:09:58.602Z,101053.09
2023-04-28T00:13:16.141Z,101050.84
2023-04-28T00:16:35.586Z,101042.75
2023-04-28T00:20:06.280Z,101043.13
2023-04-28T00:23:36.345Z,101036.69
2023-04-28T00:26:57.519Z,101037.63
2023-04-28T00:30:25.818Z,101036.75
2023-04-28T00:33:45.167Z,101034.50
2023-04-28T00:37:11.423Z,101038.50
2023-04-28T00:40:40.023Z,101031.50
2023-04-28T00:43:57.249Z,101032.56
2023-04-28T00:51:19.793Z,101029.94
2023-04-28T00:54:43.752Z,101027.13
2023-04-28T00:58:18.994Z,101030.75
2023-04-28T01:02:04.822Z,101037.03
2023-04-28T01:05:35.003Z,101040.16
2023-04-28T01:08:57.026Z,101043.22
2023-04-28T01:12:16.032Z,101051.88
2023-04-28T01:15:37.062Z,101041.81
2023-04-28T01:19:22.022Z,101047.03
2023-04-28T01:22:39.642Z,101048.56
2023-04-28T01:26:14.216Z,101051.38
2023-04-28T01:29:32.212Z,101044.88
2023-04-28T01:33:02.304Z,101046.25
2023-04-28T01:36:23.855Z,101059.66
2023-04-28T01:39:46.748Z,101057.41
2023-04-28T01:43:23.781Z,101041.56
2023-04-28T01:46:52.754Z,101046.69
2023-04-28T01:50:26.467Z,101039.03
2023-04-28T01:54:00.925Z,101035.97
2023-04-28T01:57:19.552Z,101038.41
2023-04-28T02:00:46.525Z,101035.53
2023-04-28T02:04:04.781Z,101034.53
2023-04-28T02:07:36.726Z,101051.66
2023-04-28T02:11:11.022Z,101052.38
2023-04-28T02:14:44.226Z,101051.00
2023-04-28T02:18:19.422Z,101054.25
2023-04-28T02:21:38.880Z,101049.75
2023-04-28T02:25:03.145Z,101054.63
2023-04-28T02:28:20.718Z,101048.94
2023-04-28T02:31:48.945Z,101050.84
2023-04-28T02:35:22.728Z,101052.28
2023-04-28T02:38:47.001Z,101058.34
2023-04-28T02:42:11.018Z,101059.47
2023-04-28T02:45:48.583Z,101060.66
2023-04-28T02:49:22.075Z,101057.13
2023-04-28T02:52:43.135Z,101060.28
2023-04-28T02:56:17.854Z,101054.63
2023-04-28T02:59:52.944Z,101055.50
2023-04-28T03:03:11.877Z,101052.44
2023-04-28T03:06:38.397Z,101062.44
2023-04-28T03:09:56.710Z,101062.88
2023-04-28T03:13:17.436Z,101074.03
2023-04-28T03:16:46.895Z,101074.31
2023-04-28T03:20:16.046Z,101077.28
2023-04-28T03:23:49.843Z,101077.91
2023-04-28T03:27:18.854Z,101086.09
2023-04-28T03:30:55.081Z,101090.97
2023-04-28T03:34:24.048Z,101078.34
2023-04-28T03:37:43.552Z,101081.84
2023-04-28T03:41:05.241Z,101079.91
2023-04-28T03:44:39.084Z,101077.63
2023-04-28T03:48:12.280Z,101086.47
2023-04-28T03:51:44.733Z,101076.00
2023-04-28T03:55:15.024Z,101083.41
2023-04-28T03:58:48.459Z,101083.63
2023-04-28T04:02:22.948Z,101084.44
2023-04-28T04:05:47.256Z,101091.00
2023-04-28T04:09:16.474Z,101087.53
2023-04-28T04:12:45.736Z,101085.34
2023-04-28T04:19:51.058Z,101089.31
2023-04-28T04:23:28.025Z,101097.22
2023-04-28T04:27:04.400Z,101096.78
2023-04-28T04:30:43.826Z,101105.41
2023-04-28T04:34:18.710Z,101106.44
2023-04-28T04:37:55.389Z,101103.22
2023-04-28T04:41:28.697Z,101103.59
2023-04-28T04:44:45.967Z,101104.06
2023-04-28T04:48:03.626Z,101104.84
2023-04-28T04:51:21.291Z,101097.34
2023-04-28T04:54:43.745Z,101098.31
2023-04-28T04:58:11.759Z,101109.28
2023-04-28T05:01:46.357Z,101110.38
2023-04-28T05:05:21.131Z,101109.22
2023-04-28T05:08:42.442Z,101096.75
2023-04-28T05:12:11.890Z,101102.28
2023-04-28T05:15:39.007Z,101095.59
2023-04-28T05:19:11.910Z,101099.03
2023-04-28T05:22:49.260Z,101116.81
2023-04-28T05:26:59.497Z,101109.75
2023-04-28T05:30:20.121Z,101118.00
2023-04-28T05:33:47.007Z,101116.00
2023-04-28T05:37:13.811Z,101114.38
2023-04-28T05:40:46.121Z,101107.63
2023-04-28T05:44:03.956Z,101113.25
2023-04-28T05:47:13.232Z,101113.59
2023-04-28T05:50:41.721Z,101112.94
2023-04-28T05:54:07.530Z,101109.13
2023-04-28T05:57:22.291Z,101107.53
2023-04-28T06:00:26.607Z,101111.81
2023-04-28T06:03:33.128Z,101116.00
2023-04-28T06:07:10.478Z,101111.19
2023-04-28T06:10:14.412Z,101120.97
2023-04-28T06:13:39.812Z,101121.28
2023-04-28T06:17:17.486Z,101115.47
2023-04-28T06:20:25.863Z,101117.31
2023-04-28T06:23:50.126Z,101120.50
2023-04-28T06:26:57.874Z,101121.97
2023-04-28T06:30:21.751Z,101123.12
2023-04-28T06:33:49.005Z,101124.38
2023-04-28T06:37:21.325Z,101127.22
2023-04-28T06:40:26.288Z,101117.34
2023-04-28T06:43:54.312Z,101122.06
2023-04-28T06:47:13.066Z,101119.69
2023-04-28T06:50:31.366Z,101119.62
2023-04-28T06:53:42.367Z,101117.44
2023-04-28T06:56:49.433Z,101121.94
2023-04-28T07:00:08.664Z,101125.13
2023-04-28T07:03:27.931Z,101123.09
2023-04-28T07:06:47.687Z,101113.34
2023-04-28T07:10:39.269Z,101104.34
2023-04-28T07:14:25.714Z,101101.06
2023-04-28T07:18:05.029Z,101108.75
2023-04-28T07:21:34.627Z,101102.56
2023-04-28T07:24:53.030Z,101097.59
2023-04-28T07:28:09.970Z,101099.09
2023-04-28T07:31:36.908Z,101099.62
2023-04-28T07:34:54.243Z,101101.28
2023-04-28T07:38:30.408Z,101096.09
2023-04-28T07:41:47.836Z,101087.13
2023-04-28T07:45:18.264Z,101089.91
2023-04-28T07:48:47.111Z,101090.94
2023-04-28T07:52:05.736Z,101085.06
2023-04-28T07:55:42.201Z,101082.38
2023-04-28T07:59:28.766Z,101079.53
2023-04-28T08:02:48.398Z,101074.63
2023-04-28T08:06:07.413Z,101070.06
2023-04-28T08:09:26.571Z,101061.59
2023-04-28T08:12:31.461Z,101059.22
2023-04-28T08:15:34.577Z,101054.66
2023-04-28T08:19:17.622Z,101046.22
2023-04-28T08:22:48.828Z,101031.88
2023-04-28T08:25:55.942Z,101024.84
2023-04-28T08:29:40.723Z,101025.94
2023-04-28T08:32:59.407Z,101019.09
2023-04-28T08:36:38.198Z,101014.34
2023-04-28T08:40:02.350Z,101004.97
2023-04-28T08:43:43.360Z,101010.00
2023-04-28T08:47:24.431Z,101008.62
2023-04-28T08:51:15.499Z,101010.13
2023-04-28T08:54:36.490Z,101011.22
2023-04-28T08:58:05.195Z,101004.34
2023-04-28T09:01:25.536Z,100995.44
2023-04-28T09:04:49.033Z,101005.47
2023-04-28T09:07:52.315Z,100998.94
2023-04-28T09:11:10.593Z,101000.56
2023-04-28T09:14:19.418Z,100999.97
2023-04-28T09:17:25.245Z,101004.56
2023-04-28T09:20:31.820Z,100992.91
2023-04-28T09:23:40.114Z,100996.78
2023-04-28T09:27:05.214Z,100998.56
2023-04-28T09:30:10.429Z,100998.53
2023-04-28T09:33:31.568Z,101001.34
2023-04-28T09:36:55.360Z,100997.78
2023-04-28T09:40:05.868Z,101001.94
2023-04-28T09:43:29.248Z,100990.50
2023-04-28T09:46:32.512Z,100996.72
2023-04-28T09:49:57.726Z,100989.31
2023-04-28T09:53:04.972Z,100974.22
2023-04-28T09:56:33.477Z,100975.53
2023-04-28T09:59:53.931Z,100965.53
2023-04-28T10:03:29.614Z,100962.06
2023-04-28T10:07:14.580Z,100956.81
2023-04-28T10:10:58.966Z,100949.91
2023-04-28T10:14:08.388Z,100955.56
2023-04-28T10:17:33.112Z,100949.94
2023-04-28T10:20:38.706Z,100937.69
2023-04-28T10:24:15.406Z,100921.72
2023-04-28T10:27:49.413Z,100928.78
2023-04-28T10:31:12.354Z,100923.03
2023-04-28T10:34:22.936Z,100917.28
2023-04-28T10:38:09.652Z,100907.47
2023-04-28T10:41:35.988Z,100906.59
2023-04-28T10:45:58.033Z,100904.69
2023-04-28T10:49:02.807Z,100894.84
2023-04-28T10:52:44.395Z,100902.69
2023-04-28T10:56:06.151Z,100893.47
2023-04-28T10:59:33.627Z,100883.59
2023-04-28T11:02:42.978Z,100869.94
2023-04-28T11:06:26.848Z,100873.41
2023-04-28T11:09:50.230Z,100877.97
2023-04-28T11:13:34.439Z,100865.84
2023-04-28T11:17:07.747Z,100855.72
2023-04-28T11:20:20.609Z,100860.44
2023-04-28T11:23:28.577Z,100863.34
2023-04-28T11:26:47.657Z,100860.44
2023-04-28T11:30:02.147Z,100865.13
2023-04-28T11:33:25.531Z,100855.59
2023-04-28T11:36:37.834Z,100862.19
2023-04-28T11:39:44.351Z,100856.38
2023-04-28T11:42:58.383Z,100862.09
2023-04-28T11:46:07.987Z,100866.25
2023-04-28T11:49:47.732Z,100860.00
2023-04-28T11:53:19.060Z,100854.59
2023-04-28T11:56:48.797Z,100848.19
2023-04-28T12:00:22.096Z,100847.75
2023-04-28T12:03:47.334Z,100841.59
2023-04-28T12:07:23.064Z,100834.41
2023-04-28T12:11:20.092Z,100835.22
2023-04-28T12:14:24.162Z,100828.03
2023-04-28T12:17:48.625Z,100831.09
2023-04-28T12:20:54.192Z,100826.22
2023-04-28T12:24:36.798Z,100814.91
2023-04-28T12:28:05.593Z,100813.50
2023-04-28T12:31:53.381Z,100810.22
2023-04-28T12:35:16.572Z,100807.75
2023-04-28T12:38:49.151Z,100801.72
2023-04-28T12:42:12.443Z,100798.75
2023-04-28T12:46:00.734Z,100783.56
2023-04-28T12:49:22.115Z,100775.81
2023-04-28T12:53:07.396Z,100766.03
2023-04-28T12:56:36.019Z,100754.63
2023-04-28T12:59:40.377Z,100751.34
2023-04-28T13:03:00.346Z,100741.56
2023-04-28T13:06:36.957Z,100729.09
2023-04-28T13:10:22.528Z,100718.37
2023-04-28T13:14:08.797Z,100712.25
2023-04-28T13:17:26.685Z,100715.75
2023-04-28T13:20:30.904Z,100713.78
2023-04-28T13:24:14.240Z,100709.56
2023-04-28T13:28:02.413Z,100709.56
2023-04-28T13:31:32.228Z,100712.78
2023-04-28T13:34:55.769Z,100702.88
2023-04-28T13:38:22.447Z,100708.75
2023-04-28T13:42:00.240Z,100709.84
2023-04-28T13:45:37.013Z,100706.22
2023-04-28T13:49:05.184Z,100702.63
2023-04-28T13:52:09.448Z,100697.09
2023-04-28T13:55:14.361Z,100690.16
2023-04-28T13:58:32.653Z,100682.16
2023-04-28T14:02:21.095Z,100682.25
2023-04-28T14:05:49.377Z,100661.28
2023-04-28T14:09:12.667Z,100659.38
2023-04-28T14:12:58.261Z,100652.97
2023-04-28T14:16:22.344Z,100648.97
2023-04-28T14:20:08.516Z,100649.97
2023-04-28T14:23:11.563Z,100644.44
2023-04-28T14:26:30.960Z,100646.91
2023-04-28T14:29:49.623Z,100652.56
2023-04-28T14:33:18.878Z,100656.34
2023-04-28T14:36:38.418Z,100642.22
2023-04-28T14:40:17.794Z,100643.31
2023-04-28T14:43:38.257Z,100635.47
2023-04-28T14:46:46.363Z,100624.69
2023-04-28T14:49:59.502Z,100636.66
2023-04-28T14:53:47.368Z,100627.91
2023-04-28T14:56:51.279Z,100621.28
2023-04-28T15:00:14.921Z,100623.66
2023-04-28T15:03:52.677Z,100612.63
2023-04-28T15:07:09.985Z,100604.66
2023-04-28T15:10:35.094Z,100614.69
2023-04-28T15:13:58.342Z,100599.72
2023-04-28T15:17:29.428Z,100607.66
2023-04-28T15:21:04.315Z,100608.25
2023-04-28T15:24:44.992Z,100591.97
2023-04-28T15:27:50.743Z,100603.50
2023-04-28T15:31:23.760Z,100590.06
2023-04-28T15:34:51.176Z,100599.28
2023-04-28T15:38:31.772Z,100589.63
2023-04-28T15:41:49.135Z,100597.22
2023-04-28T15:45:11.160Z,100592.87
2023-04-28T15:52:04.337Z,100591.28
2023-04-28T15:55:41.300Z,100597.25
2023-04-28T15:59:21.752Z,100586.78
2023-04-28T16:03:32.677Z,100570.34
2023-04-28T16:07:12.639Z,100572.56
2023-04-28T16:10:58.174Z,100567.78
2023-04-28T16:14:19.394Z,100563.59
2023-04-28T16:17:59.426Z,100563.84
2023-04-28T16:21:38.165Z,100561.75
2023-04-28T16:25:18.133Z,100562.16
2023-04-28T16:28:36.198Z,100558.44
2023-04-28T16:32:04.680Z,100554.47
2023-04-28T16:35:22.347Z,100546.59
2023-04-28T16:39:02.250Z,100549.66
2023-04-28T16:42:39.245Z,100537.47
2023-04-28T16:45:57.213Z,100530.66
2023-04-28T16:49:31.127Z,100525.94
2023-04-28T16:53:06.798Z,100524.16
2023-04-28T16:56:24.530Z,100521.75
2023-04-28T16:59:59.026Z,100512.69
2023-04-28T17:03:35.410Z,100506.94
2023-04-28T17:06:53.755Z,100509.41
2023-04-28T17:10:13.898Z,100502.66
2023-04-28T17:13:44.822Z,100493.69
2023-04-28T17:17:19.370Z,100495.41
2023-04-28T17:24:20.010Z,100472.59
2023-04-28T17:27:56.091Z,100469.25
2023-04-28T17:31:15.083Z,100463.44
2023-04-28T17:34:52.391Z,100458.13
2023-04-28T17:38:36.522Z,100455.50
2023-04-28T17:42:08.184Z,100464.66
2023-04-28T17:45:28.309Z,100479.84
2023-04-28T17:49:03.555Z,100485.09
2023-04-28T17:52:43.870Z,100489.34
2023-04-28T17:56:18.778Z,100483.94
2023-04-28T17:59:50.495Z,100486.66
2023-04-28T18:03:15.322Z,100492.59
2023-04-28T18:06:52.396Z,100493.12
2023-04-28T18:10:21.433Z,100490.50
2023-04-28T18:21:13.186Z,100506.84
2023-04-28T18:35:40.923Z,100509.84
2023-04-28T18:39:14.164Z,100504.31
2023-04-28T18:42:53.477Z,100506.19
2023-04-28T18:46:45.961Z,100505.13
2023-04-28T18:50:24.692Z,100510.94
2023-04-28T18:54:00.925Z,100514.13
2023-04-28T18:57:43.972Z,100510.38
2023-04-28T19:01:29.956Z,100514.59
2023-04-28T19:05:10.913Z,100506.59
2023-04-28T19:09:04.463Z,100507.84
2023-04-28T19:12:48.664Z,100509.16
2023-04-28T19:20:18.988Z,100512.00
2023-04-28T19:23:44.731Z,100507.69
2023-04-28T19:27:42.109Z,100518.25
2023-04-28T19:31:11.337Z,100528.28
2023-04-28T19:34:39.021Z,100520.03
2023-04-28T19:38:33.075Z,100516.84
2023-04-28T19:41:53.874Z,100527.94
2023-04-28T19:45:48.192Z,100523.69
2023-04-28T19:49:55.882Z,100528.97
2023-04-28T19:53:15.766Z,100531.56
2023-04-28T19:56:50.082Z,100531.56
2023-04-28T20:00:16.744Z,100516.72
2023-04-28T20:07:59.458Z,100509.78
2023-04-28T20:11:43.266Z,100508.69
2023-04-28T20:15:36.681Z,100498.84
2023-04-28T20:19:19.991Z,100487.97
2023-04-28T20:23:45.526Z,100478.53
2023-04-28T20:27:10.717Z,100477.69
2023-04-28T20:30:44.680Z,100476.84
2023-04-28T20:34:28.032Z,100477.31
2023-04-28T20:38:09.095Z,100474.87
2023-04-28T20:41:52.591Z,100464.22
2023-04-28T20:45:18.486Z,100467.91
2023-04-28T20:49:04.886Z,100473.66
2023-04-28T20:52:29.230Z,100475.25
2023-04-28T20:56:07.311Z,100463.69
2023-04-28T20:59:52.695Z,100473.25
2023-04-28T21:03:29.019Z,100486.66
2023-04-28T21:06:58.327Z,100491.16
2023-04-28T21:10:34.103Z,100486.41
2023-04-28T21:14:10.293Z,100485.59
2023-04-28T21:18:03.316Z,100464.69
2023-04-28T21:21:38.164Z,100464.84
2023-04-28T21:29:35.457Z,100467.94
2023-04-28T21:33:25.013Z,100466.34
2023-04-28T21:36:49.017Z,100466.34
2023-04-28T21:40:25.338Z,100474.28
2023-04-28T21:44:16.598Z,100470.59
2023-04-28T21:47:45.450Z,100474.53
2023-04-28T21:51:24.528Z,100466.84
2023-04-28T21:55:02.622Z,100459.97
2023-04-28T21:58:53.830Z,100458.34
2023-04-28T22:02:17.509Z,100468.16
2023-04-28T22:06:08.366Z,100469.47
2023-04-28T22:09:40.701Z,100476.28
2023-04-28T22:13:44.118Z,100471.47
2023-04-28T22:17:30.999Z,100473.75
2023-04-28T22:21:04.092Z,100468.72
2023-04-28T22:24:35.363Z,100475.78
2023-04-28T22:28:11.750Z,100471.75
2023-04-28T22:32:05.802Z,100475.38
2023-04-28T22:35:40.975Z,100471.81
2023-04-28T22:39:16.964Z,100462.03
2023-04-28T22:43:26.173Z,100460.13
2023-04-28T22:47:03.782Z,100465.94
2023-04-28T22:50:53.245Z,100461.91
2023-04-28T22:54:32.061Z,100455.03
2023-04-28T22:58:22.004Z,100461.38
2023-04-28T23:01:56.999Z,100460.81
2023-04-28T23:09:29.144Z,100454.72
2023-04-28T23:13:33.377Z,100449.66
2023-04-28T23:17:17.107Z,100441.25
2023-04-28T23:21:04.119Z,100446.25
2023-04-28T23:24:40.147Z,100441.72
2023-04-28T23:28:23.897Z,100443.84
2023-04-28T23:31:55.065Z,100441.72
2023-04-28T23:35:39.233Z,100444.44
2023-04-28T23:39:11.127Z,100431.69
2023-04-28T23:42:49.235Z,100438.53
2023-04-28T23:46:41.344Z,100432.16
2023-04-28T23:50:16.309Z,100431.59
2023-04-28T23:54:24.345Z,100419.91
2023-04-28T23:57:59.980Z,100413.50
